Time;durP1;ratioP1;P1;durP2;ratioP2;P2;SDS_P1;SDS_P2;PMS_P1;PMS_P2;Temp;Humidity;BMP_temperature;BMP_pressure;BME280_temperature;BME280_humidity;BME280_pressure;Samples;Min_cycle;Max_cycle;Signal;HPM_P1;HPM_P2
2021/12/08 00:01:33;;;;;;;12.13;4.57;;;;;;;;;;5055073;28;20049;-80
2021/12/08 00:04:00;;;;;;;7.88;4.35;;;;;;;;;;5054385;28;20045;-80
2021/12/08 00:06:27;;;;;;;8.77;4.45;;;;;;;;;;5057002;28;20071;-80
2021/12/08 00:09:06;;;;;;;7.72;4.68;;;;;;;;;;5056322;28;20045;-81
2021/12/08 00:14:18;;;;;;;7.68;4.60;;;;;;;;;;5053963;28;20140;-81
2021/12/08 00:16:45;;;;;;;6.97;4.07;;;;;;;;;;5053831;28;20045;-80
2021/12/08 00:19:12;;;;;;;7.78;4.57;;;;;;;;;;5053538;28;20052;-80
2021/12/08 00:21:39;;;;;;;6.38;3.83;;;;;;;;;;5053776;28;20045;-80
2021/12/08 00:24:08;;;;;;;7.53;4.03;;;;;;;;;;5053653;28;20099;-80
2021/12/08 00:26:36;;;;;;;8.40;3.97;;;;;;;;;;5053793;28;20094;-80
2021/12/08 00:29:04;;;;;;;7.95;4.28;;;;;;;;;;5053674;28;20475;-81
2021/12/08 00:31:31;;;;;;;7.82;4.25;;;;;;;;;;5053963;28;20060;-81
2021/12/08 00:33:58;;;;;;;8.18;4.35;;;;;;;;;;5054196;28;20052;-81
2021/12/08 00:36:31;;;;;;;7.25;3.83;;;;;;;;;;5053878;28;20049;-81
2021/12/08 00:38:58;;;;;;;8.23;4.72;;;;;;;;;;5053484;28;20092;-81
2021/12/08 00:41:26;;;;;;;6.55;4.45;;;;;;;;;;5054389;28;20057;-81
2021/12/08 00:43:53;;;;;;;7.32;4.72;;;;;;;;;;5053767;28;20498;-78
2021/12/08 00:46:20;;;;;;;8.38;4.65;;;;;;;;;;5060783;28;20036;-80
2021/12/08 00:48:49;;;;;;;7.93;4.70;;;;;;;;;;5072731;22;20050;-77
2021/12/08 00:51:17;;;;;;;6.88;4.70;;;;;;;;;;5014270;28;20056;-77
2021/12/08 00:53:46;;;;;;;8.02;4.43;;;;;;;;;;5014499;28;20042;-78
2021/12/08 00:56:13;;;;;;;8.50;4.90;;;;;;;;;;5014592;28;20548;-76
2021/12/08 00:58:42;;;;;;;7.28;4.50;;;;;;;;;;5017849;28;20080;-77
2021/12/08 01:01:09;;;;;;;7.53;4.40;;;;;;;;;;5015936;28;20122;-77
2021/12/08 01:03:36;;;;;;;6.80;4.18;;;;;;;;;;5014679;28;20049;-77
2021/12/08 01:06:05;;;;;;;7.55;4.13;;;;;;;;;;5015287;28;20049;-77
2021/12/08 01:08:34;;;;;;;6.25;4.03;;;;;;;;;;5014992;28;20412;-78
2021/12/08 01:11:04;;;;;;;7.93;4.18;;;;;;;;;;5015339;28;20057;-77
2021/12/08 01:13:31;;;;;;;9.40;4.18;;;;;;;;;;5016443;28;20050;-77
2021/12/08 01:16:00;;;;;;;7.63;4.03;;;;;;;;;;5033435;28;20061;-76
2021/12/08 01:18:29;;;;;;;6.40;3.90;;;;;;;;;;5034216;28;20029;-77
2021/12/08 01:20:58;;;;;;;6.35;4.00;;;;;;;;;;5017911;28;20076;-77
2021/12/08 01:23:26;;;;;;;8.68;4.00;;;;;;;;;;5017642;28;20049;-76
2021/12/08 01:25:54;;;;;;;6.90;4.13;;;;;;;;;;5025314;28;20033;-76
2021/12/08 01:28:22;;;;;;;6.90;3.70;;;;;;;;;;5033006;28;20053;-76
2021/12/08 01:30:50;;;;;;;9.07;4.57;;;;;;;;;;5030835;28;20692;-77
2021/12/08 01:33:19;;;;;;;9.02;4.30;;;;;;;;;;5034463;28;20060;-77
2021/12/08 01:35:47;;;;;;;7.47;4.15;;;;;;;;;;5033902;28;20077;-79
2021/12/08 01:38:14;;;;;;;7.25;4.22;;;;;;;;;;5032472;28;20057;-77
2021/12/08 01:40:41;;;;;;;6.53;3.58;;;;;;;;;;5033806;28;20034;-76
2021/12/08 01:43:12;;;;;;;5.97;3.95;;;;;;;;;;5035137;28;20089;-77
2021/12/08 01:45:58;;;;;;;6.50;4.10;;;;;;;;;;5034818;28;20053;-77
2021/12/08 01:48:29;;;;;;;7.85;3.75;;;;;;;;;;5035543;28;20050;-76
2021/12/08 01:51:00;;;;;;;6.40;4.10;;;;;;;;;;5034168;28;20050;-76
2021/12/08 01:53:27;;;;;;;7.13;4.13;;;;;;;;;;5036333;28;20050;-76
2021/12/08 01:55:56;;;;;;;6.25;3.50;;;;;;;;;;5036791;28;20038;-76
2021/12/08 01:58:23;;;;;;;6.65;3.70;;;;;;;;;;5040210;28;20057;-76
2021/12/08 02:00:54;;;;;;;6.90;3.78;;;;;;;;;;5040369;28;20034;-77
2021/12/08 02:03:22;;;;;;;6.13;3.50;;;;;;;;;;5039614;28;20049;-77
2021/12/08 02:05:51;;;;;;;7.53;3.65;;;;;;;;;;5040020;28;20038;-76
2021/12/08 02:08:19;;;;;;;6.70;3.67;;;;;;;;;;5040133;28;20034;-77
2021/12/08 02:10:46;;;;;;;6.55;3.65;;;;;;;;;;5039490;28;20077;-77
2021/12/08 02:13:14;;;;;;;6.88;3.70;;;;;;;;;;5039899;28;20034;-76
2021/12/08 02:15:40;;;;;;;6.55;3.63;;;;;;;;;;5040515;28;20038;-77
2021/12/08 02:18:11;;;;;;;6.53;3.55;;;;;;;;;;5039717;28;20052;-77
2021/12/08 02:20:39;;;;;;;6.47;3.50;;;;;;;;;;5039372;28;20045;-77
2021/12/08 02:23:08;;;;;;;7.63;3.40;;;;;;;;;;5038358;28;20464;-77
2021/12/08 02:25:35;;;;;;;5.93;3.92;;;;;;;;;;5038519;28;20038;-76
2021/12/08 02:28:05;;;;;;;7.45;3.50;;;;;;;;;;5039120;28;20050;-77
2021/12/08 02:30:37;;;;;;;5.75;3.38;;;;;;;;;;5036674;28;20049;-76
2021/12/08 02:47:06;;;;;;;6.60;3.25;;;;;;;;;;5022311;28;20065;-77
2021/12/08 02:49:34;;;;;;;8.55;3.70;;;;;;;;;;5022816;28;20045;-78
2021/12/08 02:52:02;;;;;;;6.30;2.92;;;;;;;;;;5026458;28;20054;-79
2021/12/08 02:54:36;;;;;;;5.35;2.90;;;;;;;;;;5031928;28;20050;-78
2021/12/08 02:57:03;;;;;;;5.88;3.25;;;;;;;;;;5030380;28;20045;-78
2021/12/08 02:59:30;;;;;;;5.80;3.20;;;;;;;;;;5033515;28;20037;-77
2021/12/08 03:01:57;;;;;;;5.57;3.28;;;;;;;;;;5034981;28;20114;-77
2021/12/08 03:04:24;;;;;;;5.05;2.92;;;;;;;;;;5030262;28;20046;-77
2021/12/08 03:06:51;;;;;;;5.30;3.85;;;;;;;;;;5022298;28;20046;-78
2021/12/08 03:09:18;;;;;;;5.28;2.90;;;;;;;;;;5027095;28;20046;-78
2021/12/08 03:11:48;;;;;;;6.28;3.40;;;;;;;;;;5028817;28;20049;-77
2021/12/08 03:14:16;;;;;;;6.15;3.60;;;;;;;;;;5028103;28;20053;-77
2021/12/08 03:16:46;;;;;;;7.20;3.75;;;;;;;;;;5033787;28;20050;-77
2021/12/08 03:19:13;;;;;;;5.68;3.42;;;;;;;;;;5034378;28;20045;-77
2021/12/08 03:21:40;;;;;;;6.70;3.30;;;;;;;;;;5022291;28;20057;-77
2021/12/08 03:24:17;;;;;;;7.13;2.90;;;;;;;;;;5019751;28;20046;-77
2021/12/08 03:26:51;;;;;;;6.65;3.35;;;;;;;;;;5025435;28;20050;-77
2021/12/08 03:29:25;;;;;;;6.05;3.53;;;;;;;;;;5029219;28;20072;-78
2021/12/08 03:31:55;;;;;;;5.43;3.00;;;;;;;;;;5029219;28;20058;-77
2021/12/08 03:34:25;;;;;;;8.43;3.95;;;;;;;;;;5029435;28;20109;-77
2021/12/08 03:36:53;;;;;;;6.50;3.22;;;;;;;;;;5029276;28;20057;-78
2021/12/08 03:39:19;;;;;;;5.75;3.10;;;;;;;;;;5028898;28;20045;-77
2021/12/08 03:41:48;;;;;;;6.30;3.03;;;;;;;;;;5023087;28;20050;-78
2021/12/08 03:44:15;;;;;;;4.75;2.90;;;;;;;;;;5023148;28;20046;-78
2021/12/08 03:46:42;;;;;;;5.15;2.92;;;;;;;;;;5027567;28;20061;-77
2021/12/08 03:49:13;;;;;;;5.07;2.67;;;;;;;;;;5027285;28;20465;-77
2021/12/08 03:51:41;;;;;;;5.22;3.05;;;;;;;;;;5028583;28;20054;-77
2021/12/08 03:54:09;;;;;;;5.97;3.42;;;;;;;;;;5025875;28;20050;-77
2021/12/08 03:56:36;;;;;;;6.00;3.28;;;;;;;;;;5015817;28;20045;-79
2021/12/08 03:59:06;;;;;;;5.68;2.90;;;;;;;;;;5020204;28;20509;-79
2021/12/08 04:01:33;;;;;;;5.57;2.90;;;;;;;;;;5015967;28;20062;-77
2021/12/08 04:04:05;;;;;;;5.70;3.22;;;;;;;;;;5014765;28;20497;-77
2021/12/08 04:06:39;;;;;;;6.00;3.35;;;;;;;;;;5017274;28;20057;-76
2021/12/08 04:09:13;;;;;;;6.53;3.00;;;;;;;;;;5015680;28;20745;-78
2021/12/08 04:11:41;;;;;;;6.18;3.28;;;;;;;;;;5015268;28;20046;-77
2021/12/08 04:14:12;;;;;;;5.25;2.88;;;;;;;;;;5015761;28;20050;-77
2021/12/08 04:16:44;;;;;;;6.45;3.63;;;;;;;;;;5024662;28;20046;-78
2021/12/08 04:19:11;;;;;;;7.07;3.58;;;;;;;;;;5025650;28;20054;-78
2021/12/08 04:21:40;;;;;;;5.68;3.17;;;;;;;;;;5027740;28;20080;-77
2021/12/08 04:24:08;;;;;;;5.47;2.88;;;;;;;;;;5027569;28;20057;-77
2021/12/08 04:26:39;;;;;;;5.75;3.10;;;;;;;;;;5026273;28;20057;-78
2021/12/08 04:29:08;;;;;;;6.75;3.05;;;;;;;;;;5023886;28;20521;-78
2021/12/08 04:31:38;;;;;;;5.80;2.80;;;;;;;;;;5022221;28;20049;-78
2021/12/08 04:34:13;;;;;;;6.20;3.20;;;;;;;;;;5021750;28;20100;-78
2021/12/08 04:36:44;;;;;;;5.68;3.08;;;;;;;;;;5014205;28;20484;-77
2021/12/08 04:39:19;;;;;;;7.13;3.20;;;;;;;;;;5014297;28;20127;-77
2021/12/08 04:41:52;;;;;;;7.63;3.55;;;;;;;;;;5014765;28;20421;-78
2021/12/08 04:44:31;;;;;;;5.85;3.30;;;;;;;;;;5014864;28;20078;-77
2021/12/08 04:47:22;;;;;;;4.90;3.10;;;;;;;;;;5014865;28;20061;-77
2021/12/08 04:52:50;;;;;;;5.85;3.20;;;;;;;;;;5015208;28;20064;-78
2021/12/08 05:06:45;;;;;;;7.03;3.53;;;;;;;;;;5014441;28;20124;-78
2021/12/08 05:09:15;;;;;;;6.22;3.60;;;;;;;;;;5020143;28;20053;-78
2021/12/08 05:11:46;;;;;;;9.00;5.00;;;;;;;;;;5016511;28;20057;-77
2021/12/08 05:14:18;;;;;;;9.45;5.50;;;;;;;;;;5016829;28;20294;-79
2021/12/08 05:16:48;;;;;;;8.30;4.88;;;;;;;;;;5016602;28;20428;-79
2021/12/08 05:19:19;;;;;;;9.73;4.60;;;;;;;;;;5019326;28;20053;-78
2021/12/08 05:21:49;;;;;;;7.78;3.65;;;;;;;;;;5016835;28;20050;-77
2021/12/08 05:24:19;;;;;;;5.43;3.38;;;;;;;;;;5016045;28;20053;-78
2021/12/08 05:26:52;;;;;;;7.32;4.05;;;;;;;;;;5016289;28;20052;-77
2021/12/08 05:29:24;;;;;;;6.32;3.58;;;;;;;;;;5013616;28;20509;-77
2021/12/08 05:31:52;;;;;;;5.75;3.55;;;;;;;;;;5013981;28;20053;-77
2021/12/08 05:34:20;;;;;;;7.00;3.67;;;;;;;;;;5014419;28;20053;-77
2021/12/08 05:36:47;;;;;;;6.72;4.05;;;;;;;;;;5023315;28;20042;-77
2021/12/08 05:39:20;;;;;;;7.80;4.22;;;;;;;;;;5025766;28;20117;-77
2021/12/08 05:41:49;;;;;;;6.53;4.00;;;;;;;;;;5023467;28;20489;-77
2021/12/08 05:44:16;;;;;;;5.90;3.58;;;;;;;;;;5020913;28;20053;-77
2021/12/08 05:46:47;;;;;;;7.45;3.65;;;;;;;;;;5020090;28;20045;-77
2021/12/08 05:49:17;;;;;;;6.30;3.63;;;;;;;;;;5013785;28;20057;-77
2021/12/08 05:51:47;;;;;;;5.85;3.60;;;;;;;;;;5013951;28;20136;-77
2021/12/08 05:54:17;;;;;;;10.82;5.57;;;;;;;;;;5017897;28;20140;-78
2021/12/08 05:56:45;;;;;;;7.43;4.93;;;;;;;;;;5018038;28;20046;-78
2021/12/08 05:59:13;;;;;;;10.00;5.93;;;;;;;;;;5016730;28;20073;-78
2021/12/08 06:01:44;;;;;;;10.50;6.00;;;;;;;;;;5017296;28;20101;-79
2021/12/08 06:04:12;;;;;;;13.60;6.90;;;;;;;;;;5029111;28;20073;-78
2021/12/08 06:06:40;;;;;;;11.18;6.55;;;;;;;;;;5023254;28;20160;-78
2021/12/08 06:09:12;;;;;;;13.15;6.65;;;;;;;;;;5018426;28;20046;-78
2021/12/08 06:11:40;;;;;;;14.00;6.53;;;;;;;;;;5018549;28;20053;-78
2021/12/08 06:14:08;;;;;;;10.75;5.18;;;;;;;;;;5018361;28;20057;-78
2021/12/08 06:16:37;;;;;;;7.90;4.78;;;;;;;;;;5016737;28;20085;-77
2021/12/08 06:19:05;;;;;;;11.20;6.03;;;;;;;;;;5018034;28;20061;-78
2021/12/08 06:21:32;;;;;;;10.73;6.85;;;;;;;;;;5017641;28;20517;-76
2021/12/08 06:24:01;;;;;;;9.10;5.63;;;;;;;;;;5014127;28;20528;-77
2021/12/08 06:26:30;;;;;;;9.50;5.15;;;;;;;;;;5012307;28;20485;-77
2021/12/08 06:28:58;;;;;;;10.13;4.63;;;;;;;;;;5011639;28;20568;-76
2021/12/08 06:31:29;;;;;;;8.85;5.47;;;;;;;;;;5011990;28;20548;-76
2021/12/08 06:33:56;;;;;;;9.05;5.22;;;;;;;;;;5013847;28;20050;-77
2021/12/08 06:36:27;;;;;;;8.55;5.20;;;;;;;;;;5012936;28;20061;-77
2021/12/08 06:38:54;;;;;;;8.70;4.55;;;;;;;;;;5015959;28;20050;-76
2021/12/08 06:41:25;;;;;;;7.75;4.28;;;;;;;;;;5012205;28;20054;-78
2021/12/08 06:43:56;;;;;;;6.63;3.78;;;;;;;;;;5014181;28;20057;-77
2021/12/08 06:46:24;;;;;;;9.82;4.72;;;;;;;;;;5015572;28;20045;-77
2021/12/08 06:48:54;;;;;;;8.45;4.82;;;;;;;;;;5044543;22;20054;-82
2021/12/08 06:51:24;;;;;;;9.55;4.88;;;;;;;;;;5002721;28;20135;-82
2021/12/08 06:53:53;;;;;;;7.57;4.40;;;;;;;;;;5002414;28;20054;-81
2021/12/08 06:56:25;;;;;;;10.25;5.13;;;;;;;;;;5002768;28;20525;-81
2021/12/08 06:58:58;;;;;;;13.25;7.45;;;;;;;;;;5001828;28;20106;-82
2021/12/08 07:01:38;;;;;;;20.25;10.05;;;;;;;;;;5002124;28;20105;-81
2021/12/08 07:04:13;;;;;;;15.20;8.43;;;;;;;;;;5007553;28;20091;-82
2021/12/08 07:06:48;;;;;;;12.48;7.03;;;;;;;;;;5000974;28;20050;-81
2021/12/08 07:09:20;;;;;;;9.27;6.35;;;;;;;;;;4996444;28;20490;-81
2021/12/08 07:11:48;;;;;;;13.07;7.50;;;;;;;;;;4996401;28;20101;-81
2021/12/08 07:14:17;;;;;;;9.02;5.25;;;;;;;;;;4996257;28;20050;-81
2021/12/08 07:16:48;;;;;;;8.77;4.95;;;;;;;;;;4998217;28;20058;-81
2021/12/08 07:19:26;;;;;;;8.80;5.35;;;;;;;;;;4997509;28;20058;-81
2021/12/08 07:21:55;;;;;;;7.50;4.72;;;;;;;;;;4997666;28;20050;-82
2021/12/08 07:24:25;;;;;;;16.65;9.45;;;;;;;;;;4998166;28;20057;-81
2021/12/08 07:26:56;;;;;;;9.65;5.43;;;;;;;;;;4997749;28;20046;-81
2021/12/08 07:29:29;;;;;;;8.05;4.57;;;;;;;;;;4997844;28;20054;-81
2021/12/08 07:31:59;;;;;;;8.00;5.05;;;;;;;;;;4998185;28;20097;-81
2021/12/08 07:34:27;;;;;;;7.68;5.00;;;;;;;;;;4997481;28;20116;-81
2021/12/08 07:37:02;;;;;;;9.63;5.18;;;;;;;;;;4998958;28;20067;-82
2021/12/08 07:39:33;;;;;;;13.20;5.78;;;;;;;;;;4998841;28;20069;-81
2021/12/08 07:42:04;;;;;;;8.48;5.07;;;;;;;;;;4999401;28;20046;-80
2021/12/08 07:44:33;;;;;;;11.32;5.32;;;;;;;;;;4999127;28;20058;-80
2021/12/08 07:47:05;;;;;;;17.13;8.73;;;;;;;;;;4999168;28;20046;-81
2021/12/08 07:49:38;;;;;;;29.85;15.07;;;;;;;;;;5000286;28;20065;-80
2021/12/08 07:52:09;;;;;;;15.07;7.28;;;;;;;;;;5000568;28;20050;-81
2021/12/08 07:54:36;;;;;;;;;;;;;;;;;;5000283;28;20054;-81
2021/12/08 07:57:07;;;;;;;10.63;4.80;;;;;;;;;;4998796;28;20339;-82
2021/12/08 07:59:38;;;;;;;8.43;5.40;;;;;;;;;;4999749;28;20137;-80
2021/12/08 08:02:07;;;;;;;8.80;4.65;;;;;;;;;;4998452;28;20070;-80
2021/12/08 08:04:37;;;;;;;9.35;4.93;;;;;;;;;;5012975;28;20094;-80
2021/12/08 08:07:06;;;;;;;7.60;4.20;;;;;;;;;;5022222;28;20049;-82
2021/12/08 08:09:39;;;;;;;9.77;5.10;;;;;;;;;;5034264;28;20045;-82
2021/12/08 08:12:08;;;;;;;14.13;6.60;;;;;;;;;;5021226;28;20105;-81
2021/12/08 08:14:40;;;;;;;14.60;7.80;;;;;;;;;;5012810;28;20062;-82
2021/12/08 08:17:08;;;;;;;10.52;6.30;;;;;;;;;;5011927;28;20500;-82
2021/12/08 08:19:42;;;;;;;13.23;7.13;;;;;;;;;;5012133;28;20042;-81
2021/12/08 08:22:13;;;;;;;14.52;8.02;;;;;;;;;;5017900;28;20038;-81
2021/12/08 08:24:40;;;;;;;13.68;8.45;;;;;;;;;;5031662;28;20044;-82
2021/12/08 08:27:09;;;;;;;12.60;6.68;;;;;;;;;;5032498;28;20030;-81
2021/12/08 08:29:39;;;;;;;11.00;6.20;;;;;;;;;;5031294;28;20052;-81
2021/12/08 08:32:10;;;;;;;14.15;6.50;;;;;;;;;;5030617;28;20080;-81
2021/12/08 08:34:40;;;;;;;9.73;4.90;;;;;;;;;;5028618;28;20072;-81
2021/12/08 08:37:11;;;;;;;8.07;4.60;;;;;;;;;;5008782;28;20141;-81
2021/12/08 08:39:42;;;;;;;14.18;9.15;;;;;;;;;;5006367;28;20045;-80
2021/12/08 08:42:16;;;;;;;16.35;9.32;;;;;;;;;;5006582;28;20045;-81
2021/12/08 08:44:47;;;;;;;10.07;4.95;;;;;;;;;;5006000;28;20445;-81
2021/12/08 08:47:18;;;;;;;9.68;4.25;;;;;;;;;;5008049;28;20049;-81
2021/12/08 08:49:46;;;;;;;7.15;3.78;;;;;;;;;;5008734;28;20050;-81
2021/12/08 08:52:19;;;;;;;6.63;4.32;;;;;;;;;;5009414;28;20732;-81
2021/12/08 08:54:48;;;;;;;6.38;4.07;;;;;;;;;;5008638;28;20050;-81
2021/12/08 08:57:19;;;;;;;7.13;4.00;;;;;;;;;;5008950;28;20697;-81
2021/12/08 08:59:48;;;;;;;;;;;;;;;;;;5010676;28;20049;-81
2021/12/08 09:02:20;;;;;;;9.43;4.97;;;;;;;;;;5011313;28;19984;-81
2021/12/08 09:04:50;;;;;;;7.65;4.38;;;;;;;;;;5009559;28;20053;-81
2021/12/08 09:07:23;;;;;;;9.65;4.72;;;;;;;;;;5008465;28;20054;-81
2021/12/08 09:09:51;;;;;;;7.50;4.28;;;;;;;;;;5010414;28;20049;-81
2021/12/08 09:12:23;;;;;;;7.95;4.53;;;;;;;;;;5010464;28;20046;-81
2021/12/08 09:14:55;;;;;;;10.20;4.80;;;;;;;;;;5010616;28;20117;-81
2021/12/08 09:17:26;;;;;;;6.75;4.50;;;;;;;;;;5024230;28;20053;-81
2021/12/08 09:19:58;;;;;;;8.40;4.78;;;;;;;;;;5023359;28;20042;-81
2021/12/08 09:22:30;;;;;;;7.72;4.53;;;;;;;;;;5009674;28;20041;-81
2021/12/08 09:25:01;;;;;;;7.13;4.10;;;;;;;;;;5011668;28;20579;-80
2021/12/08 09:27:31;;;;;;;6.68;3.83;;;;;;;;;;5009885;28;20050;-82
2021/12/08 09:30:07;;;;;;;8.18;4.65;;;;;;;;;;5011785;28;20049;-81
2021/12/08 09:32:42;;;;;;;8.07;4.38;;;;;;;;;;5010381;28;20103;-82
2021/12/08 09:35:16;;;;;;;7.85;4.07;;;;;;;;;;5013081;28;20045;-82
2021/12/08 09:37:48;;;;;;;6.43;3.80;;;;;;;;;;5012165;28;20053;-81
2021/12/08 09:40:26;;;;;;;9.25;4.15;;;;;;;;;;5012662;28;20048;-82
2021/12/08 09:42:55;;;;;;;9.52;4.75;;;;;;;;;;5011319;28;20050;-80
2021/12/08 09:45:28;;;;;;;11.27;5.15;;;;;;;;;;5012703;28;20480;-81
2021/12/08 09:47:55;;;;;;;8.38;4.68;;;;;;;;;;5008794;28;20046;-80
2021/12/08 09:50:22;;;;;;;8.32;4.30;;;;;;;;;;5008807;28;20100;-80
2021/12/08 09:52:49;;;;;;;9.82;4.50;;;;;;;;;;5008109;28;20452;-80
2021/12/08 09:55:17;;;;;;;11.00;4.30;;;;;;;;;;5009083;28;20038;-80
2021/12/08 09:57:45;;;;;;;9.10;4.68;;;;;;;;;;5008498;28;20081;-80
2021/12/08 10:00:19;;;;;;;9.13;4.97;;;;;;;;;;5008195;28;20054;-80
2021/12/08 10:02:47;;;;;;;8.13;4.88;;;;;;;;;;5007479;28;20101;-82
2021/12/08 10:05:17;;;;;;;9.00;4.30;;;;;;;;;;5007442;28;20061;-81
2021/12/08 10:07:44;;;;;;;8.95;4.32;;;;;;;;;;5006979;28;20046;-81
2021/12/08 10:10:13;;;;;;;8.65;4.68;;;;;;;;;;5006627;28;20046;-81
2021/12/08 10:12:40;;;;;;;9.10;4.85;;;;;;;;;;5008009;28;20504;-81
2021/12/08 10:15:10;;;;;;;10.32;5.15;;;;;;;;;;5007101;28;20104;-81
2021/12/08 10:17:37;;;;;;;10.45;4.97;;;;;;;;;;5009879;28;20050;-81
2021/12/08 10:20:18;;;;;;;10.70;4.55;;;;;;;;;;5011121;28;20103;-81
2021/12/08 10:22:48;;;;;;;7.57;4.40;;;;;;;;;;5010658;28;20053;-81
2021/12/08 10:25:17;;;;;;;10.38;5.25;;;;;;;;;;5011799;28;20497;-81
2021/12/08 10:28:05;;;;;;;11.15;4.85;;;;;;;;;;5010844;28;20050;-83
2021/12/08 10:30:35;;;;;;;9.65;5.25;;;;;;;;;;5011568;28;20049;-78
2021/12/08 10:33:10;;;;;;;9.17;6.00;;;;;;;;;;5010554;28;20071;-81
2021/12/08 10:35:45;;;;;;;9.10;5.28;;;;;;;;;;5012302;28;20287;-80
2021/12/08 10:38:15;;;;;;;9.90;5.10;;;;;;;;;;5011882;28;20077;-81
2021/12/08 10:40:58;;;;;;;11.30;6.10;;;;;;;;;;5012579;28;20275;-81
2021/12/08 10:43:25;;;;;;;10.57;5.50;;;;;;;;;;5013209;28;20042;-81
2021/12/08 10:46:01;;;;;;;8.55;5.57;;;;;;;;;;5011281;28;20137;-80
2021/12/08 10:48:34;;;;;;;12.57;5.43;;;;;;;;;;5011900;28;20496;-81
2021/12/08 10:56:37;;;;;;;7.28;5.18;;;;;;;;;;5012053;28;20060;-80
2021/12/08 10:59:04;;;;;;;11.32;6.38;;;;;;;;;;5011380;28;20128;-80
2021/12/08 11:01:31;;;;;;;9.98;5.38;;;;;;;;;;5013418;28;20053;-80
2021/12/08 11:04:01;;;;;;;8.43;5.28;;;;;;;;;;5013024;28;20042;-80
2021/12/08 11:06:32;;;;;;;11.95;6.10;;;;;;;;;;5027624;28;20249;-80
2021/12/08 11:08:59;;;;;;;8.23;5.10;;;;;;;;;;5033640;28;20053;-81
2021/12/08 11:11:30;;;;;;;9.10;5.25;;;;;;;;;;5034254;28;20034;-83
2021/12/08 11:14:00;;;;;;;13.80;8.90;;;;;;;;;;5024368;28;20037;-82
2021/12/08 11:16:29;;;;;;;9.70;6.32;;;;;;;;;;5014610;28;20038;-81
2021/12/08 11:19:00;;;;;;;9.10;5.78;;;;;;;;;;5012594;28;20126;-82
2021/12/08 11:21:32;;;;;;;;;;;;;;;;;;5015009;28;20172;-82
2021/12/08 11:24:02;;;;;;;10.07;5.10;;;;;;;;;;5017079;28;19941;-82
2021/12/08 11:26:33;;;;;;;9.25;5.53;;;;;;;;;;5011344;28;20042;-81
2021/12/08 11:29:05;;;;;;;10.05;5.65;;;;;;;;;;5011190;28;20081;-81
2021/12/08 11:31:36;;;;;;;7.13;4.95;;;;;;;;;;5011962;28;20072;-81
2021/12/08 11:34:05;;;;;;;9.90;6.00;;;;;;;;;;5011748;28;20107;-81
2021/12/08 11:36:35;;;;;;;12.10;5.90;;;;;;;;;;5010202;28;20535;-83
2021/12/08 11:39:12;;;;;;;10.60;5.50;;;;;;;;;;5008817;28;20053;-84
2021/12/08 11:41:42;;;;;;;8.48;5.68;;;;;;;;;;5010663;28;20046;-81
2021/12/08 11:44:13;;;;;;;11.10;5.38;;;;;;;;;;5012694;28;20046;-82
2021/12/08 11:46:50;;;;;;;8.98;5.35;;;;;;;;;;5012177;28;20046;-82
2021/12/08 11:49:18;;;;;;;8.55;5.45;;;;;;;;;;5009843;28;20131;-81
2021/12/08 11:52:00;;;;;;;7.47;5.07;;;;;;;;;;5014727;28;20037;-82
2021/12/08 11:54:34;;;;;;;9.80;6.20;;;;;;;;;;5011483;28;20061;-81
2021/12/08 11:57:10;;;;;;;10.73;6.97;;;;;;;;;;5009810;28;20163;-81
2021/12/08 11:59:57;;;;;;;10.35;5.93;;;;;;;;;;5009648;28;20448;-81
2021/12/08 12:02:26;;;;;;;10.63;6.25;;;;;;;;;;5008778;28;20127;-81
2021/12/08 12:04:54;;;;;;;8.95;5.80;;;;;;;;;;5011676;28;20263;-82
2021/12/08 12:07:21;;;;;;;11.15;5.93;;;;;;;;;;5019927;28;20105;-81
2021/12/08 12:09:50;;;;;;;10.98;5.70;;;;;;;;;;5027319;28;20058;-80
2021/12/08 12:12:18;;;;;;;11.00;6.05;;;;;;;;;;5018399;28;20108;-81
2021/12/08 12:14:50;;;;;;;8.80;5.32;;;;;;;;;;5011984;28;20108;-81
2021/12/08 12:17:18;;;;;;;8.43;4.95;;;;;;;;;;5010034;28;20056;-81
2021/12/08 12:19:53;;;;;;;10.27;5.72;;;;;;;;;;5010258;28;20432;-82
2021/12/08 12:22:49;;;;;;;9.02;5.75;;;;;;;;;;5011864;28;20050;-83
2021/12/08 12:25:35;;;;;;;7.28;4.82;;;;;;;;;;5005791;28;20046;-82
2021/12/08 12:28:21;;;;;;;13.20;9.15;;;;;;;;;;5007403;28;20038;-81
2021/12/08 12:30:57;;;;;;;13.15;7.70;;;;;;;;;;5009988;28;20564;-83
2021/12/08 12:33:24;;;;;;;9.60;5.97;;;;;;;;;;5010149;28;20053;-82
2021/12/08 12:36:06;;;;;;;7.82;5.15;;;;;;;;;;5010840;28;20120;-82
2021/12/08 12:38:38;;;;;;;11.02;6.15;;;;;;;;;;5010695;28;20038;-82
2021/12/08 12:41:24;;;;;;;11.23;5.70;;;;;;;;;;5011610;28;20061;-80
2021/12/08 12:43:51;;;;;;;10.90;5.75;;;;;;;;;;5013343;28;20077;-81
2021/12/08 12:46:20;;;;;;;9.30;6.30;;;;;;;;;;5008110;28;20049;-81
2021/12/08 12:48:51;;;;;;;9.90;5.90;;;;;;;;;;5007836;28;20041;-82
2021/12/08 12:51:19;;;;;;;9.40;5.75;;;;;;;;;;5007728;28;20042;-81
2021/12/08 12:53:53;;;;;;;10.60;6.00;;;;;;;;;;5008835;28;20117;-82
2021/12/08 12:56:59;;;;;;;11.23;6.57;;;;;;;;;;5009378;28;20061;-82
2021/12/08 12:59:39;;;;;;;10.95;6.45;;;;;;;;;;5009105;28;20058;-83
2021/12/08 13:02:08;;;;;;;8.00;5.83;;;;;;;;;;5009901;28;20050;-83
2021/12/08 13:04:51;;;;;;;10.18;6.05;;;;;;;;;;5010351;28;20686;-79
2021/12/08 13:07:18;;;;;;;10.27;5.63;;;;;;;;;;5011748;28;20069;-81
2021/12/08 13:09:51;;;;;;;7.10;4.80;;;;;;;;;;5011315;28;20052;-82
2021/12/08 13:12:21;;;;;;;9.40;4.53;;;;;;;;;;5013285;28;20045;-80
2021/12/08 13:14:50;;;;;;;7.63;4.63;;;;;;;;;;5011366;28;20128;-80
2021/12/08 13:17:20;;;;;;;8.18;4.75;;;;;;;;;;5008763;28;20049;-80
2021/12/08 13:19:49;;;;;;;6.65;4.68;;;;;;;;;;5008896;28;20057;-82
2021/12/08 13:22:50;;;;;;;7.82;4.32;;;;;;;;;;5012740;28;20528;-81
2021/12/08 13:25:53;;;;;;;6.10;3.65;;;;;;;;;;5023067;28;20049;-81
2021/12/08 13:28:30;;;;;;;6.03;3.58;;;;;;;;;;5025309;28;20041;-84
2021/12/08 13:31:06;;;;;;;5.35;3.50;;;;;;;;;;5026604;28;20046;-82
2021/12/08 13:33:39;;;;;;;6.57;3.97;;;;;;;;;;5026089;28;20045;-80
2021/12/08 13:36:32;;;;;;;8.98;4.30;;;;;;;;;;5024136;28;20474;-82
2021/12/08 13:39:21;;;;;;;7.47;4.10;;;;;;;;;;5027475;28;20050;-81
2021/12/08 13:42:01;;;;;;;8.23;4.70;;;;;;;;;;5015498;28;20103;-81
2021/12/08 13:44:35;;;;;;;7.63;4.05;;;;;;;;;;5017937;28;20050;-82
2021/12/08 13:47:09;;;;;;;7.55;4.28;;;;;;;;;;5013989;28;20064;-81
2021/12/08 13:49:48;;;;;;;8.02;4.47;;;;;;;;;;5010937;28;20049;-82
2021/12/08 13:52:19;;;;;;;7.80;4.43;;;;;;;;;;5012069;28;20077;-82
2021/12/08 13:54:48;;;;;;;7.38;4.00;;;;;;;;;;5014637;28;20559;-82
2021/12/08 13:57:34;;;;;;;10.18;3.70;;;;;;;;;;5016264;28;20077;-83
2021/12/08 14:00:25;;;;;;;8.32;3.95;;;;;;;;;;5015376;28;20095;-83
2021/12/08 14:02:54;;;;;;;;;;;;;;;;;;5014874;28;20125;-83
2021/12/08 14:05:23;;;;;;;7.32;4.40;;;;;;;;;;5018783;28;19921;-82
2021/12/08 14:07:56;;;;;;;9.40;4.28;;;;;;;;;;5020333;28;20058;-83
2021/12/08 14:10:28;;;;;;;8.60;4.47;;;;;;;;;;5032749;28;20077;-79
2021/12/08 14:13:00;;;;;;;7.57;4.75;;;;;;;;;;5034086;28;20049;-80
2021/12/08 14:15:32;;;;;;;9.27;5.15;;;;;;;;;;5030491;28;20353;-81
2021/12/08 14:18:18;;;;;;;9.52;4.95;;;;;;;;;;5017962;28;20128;-83
2021/12/08 14:20:47;;;;;;;17.42;9.27;;;;;;;;;;5014366;28;20153;-83
2021/12/08 14:23:14;;;;;;;10.45;5.95;;;;;;;;;;5023802;28;20054;-82
2021/12/08 14:25:48;;;;;;;7.60;4.82;;;;;;;;;;5017974;28;20068;-82
2021/12/08 14:28:53;;;;;;;6.25;4.53;;;;;;;;;;5016111;28;20103;-82
2021/12/08 14:31:33;;;;;;;7.35;4.95;;;;;;;;;;5015934;28;20041;-82
2021/12/08 14:34:04;;;;;;;12.05;5.32;;;;;;;;;;5014123;28;20046;-83
2021/12/08 14:36:38;;;;;;;9.48;4.50;;;;;;;;;;5013059;28;20073;-81
2021/12/08 14:39:08;;;;;;;8.02;4.40;;;;;;;;;;5013695;28;20046;-81
2021/12/08 14:41:37;;;;;;;8.57;4.55;;;;;;;;;;5015077;28;20160;-82
2021/12/08 14:44:08;;;;;;;9.70;5.07;;;;;;;;;;5015451;28;20041;-81
2021/12/08 14:46:36;;;;;;;8.68;5.15;;;;;;;;;;5020959;28;20056;-81
2021/12/08 14:49:06;;;;;;;30.00;16.30;;;;;;;;;;5022696;28;20488;-82
2021/12/08 14:51:35;;;;;;;14.25;9.10;;;;;;;;;;5025609;28;20050;-81
2021/12/08 14:54:28;;;;;;;11.10;6.43;;;;;;;;;;5024002;28;20060;-81
2021/12/08 14:57:16;;;;;;;8.07;4.75;;;;;;;;;;5021715;28;20046;-83
2021/12/08 14:59:47;;;;;;;9.30;5.03;;;;;;;;;;5021306;28;20077;-83
2021/12/08 15:02:21;;;;;;;7.63;5.10;;;;;;;;;;5017895;28;20125;-82
2021/12/08 15:04:49;;;;;;;7.53;4.38;;;;;;;;;;5021686;28;20065;-81
2021/12/08 15:07:22;;;;;;;6.43;4.35;;;;;;;;;;5022432;28;20053;-82
2021/12/08 15:10:00;;;;;;;8.75;4.95;;;;;;;;;;5021828;28;20045;-83
2021/12/08 15:12:27;;;;;;;7.78;4.30;;;;;;;;;;5014780;28;20045;-83
2021/12/08 15:14:54;;;;;;;11.35;5.18;;;;;;;;;;5013252;28;20057;-84
2021/12/08 15:17:31;;;;;;;11.75;5.95;;;;;;;;;;5013155;28;20485;-82
2021/12/08 15:19:59;;;;;;;8.60;5.10;;;;;;;;;;5012751;28;20056;-82
2021/12/08 15:22:28;;;;;;;8.65;4.80;;;;;;;;;;5010238;28;20053;-81
2021/12/08 15:25:23;;;;;;;7.82;4.10;;;;;;;;;;5013442;28;20681;-83
2021/12/08 15:27:52;;;;;;;17.35;9.57;;;;;;;;;;4999499;28;20073;-82
2021/12/08 15:30:39;;;;;;;37.15;22.60;;;;;;;;;;5011815;28;20104;-81
2021/12/08 15:33:10;;;;;;;21.88;10.98;;;;;;;;;;5013182;28;20057;-82
2021/12/08 15:35:38;;;;;;;11.82;7.25;;;;;;;;;;5011769;28;20100;-82
2021/12/08 15:38:06;;;;;;;10.15;6.15;;;;;;;;;;5012946;28;20052;-83
2021/12/08 15:40:36;;;;;;;9.85;6.05;;;;;;;;;;5014484;28;20479;-83
2021/12/08 15:43:05;;;;;;;8.73;5.32;;;;;;;;;;5013921;28;20072;-82